createdAt,value
2023-01-03T00:01:26.243Z,19.03
2023-01-03T00:03:56.136Z,16.13
2023-01-03T00:06:26.652Z,22.40
2023-01-03T00:08:55.864Z,19.93
2023-01-03T00:11:41.342Z,20.43
2023-01-03T00:14:09.751Z,20.60
2023-01-03T00:16:37.830Z,15.03
2023-01-03T00:19:08.099Z,19.07
2023-01-03T00:21:36.762Z,15.23
2023-01-03T00:24:05.389Z,19.67
2023-01-03T00:26:35.083Z,17.13
2023-01-03T00:29:03.125Z,13.97
2023-01-03T00:31:31.195Z,16.00
2023-01-03T00:33:59.322Z,15.40
2023-01-03T00:36:27.329Z,19.27
2023-01-03T00:38:55.359Z,15.33
2023-01-03T00:41:23.408Z,20.53
2023-01-03T00:43:52.841Z,14.37
2023-01-03T00:46:21.912Z,19.00
2023-01-03T00:48:50.576Z,17.57
2023-01-03T00:51:20.429Z,15.83
2023-01-03T00:53:49.647Z,21.47
2023-01-03T00:56:19.899Z,17.10
2023-01-03T00:58:48.678Z,19.30
2023-01-03T01:01:20.578Z,17.90
2023-01-03T01:03:50.896Z,18.13
2023-01-03T01:06:21.344Z,16.00
2023-01-03T01:08:51.256Z,18.27
2023-01-03T01:11:20.269Z,19.17
2023-01-03T01:13:48.870Z,21.00
2023-01-03T01:16:21.385Z,18.67
2023-01-03T01:18:53.681Z,17.63
2023-01-03T01:21:24.607Z,18.37
2023-01-03T01:23:53.236Z,21.10
2023-01-03T01:26:23.459Z,17.70
2023-01-03T01:28:52.107Z,15.40
2023-01-03T01:31:23.975Z,17.63
2023-01-03T01:33:52.705Z,15.33
2023-01-03T01:36:22.688Z,19.97
2023-01-03T01:38:57.285Z,16.17
2023-01-03T01:41:39.688Z,16.47
2023-01-03T01:44:26.370Z,16.83
2023-01-03T01:46:56.099Z,14.93
2023-01-03T01:49:27.209Z,17.17
2023-01-03T01:51:55.388Z,16.63
2023-01-03T01:54:23.547Z,13.37
2023-01-03T01:56:54.464Z,15.60
2023-01-03T01:59:22.611Z,16.43
2023-01-03T02:01:52.702Z,15.10
2023-01-03T02:04:25.603Z,16.37
2023-01-03T02:06:54.199Z,16.40
2023-01-03T02:09:22.454Z,17.63
2023-01-03T02:12:15.455Z,12.87
2023-01-03T02:14:56.182Z,15.23
2023-01-03T02:17:35.305Z,16.37
2023-01-03T02:20:39.414Z,16.07
2023-01-03T02:23:51.117Z,13.57
2023-01-03T02:26:49.686Z,11.93
2023-01-03T02:29:56.635Z,15.97
2023-01-03T02:32:36.284Z,14.27
2023-01-03T02:35:10.656Z,15.47
2023-01-03T02:37:42.734Z,15.27
2023-01-03T02:40:19.596Z,15.97
2023-01-03T02:43:02.127Z,14.73
2023-01-03T02:45:43.138Z,14.90
2023-01-03T02:48:16.932Z,15.03
2023-01-03T02:50:49.829Z,19.90
2023-01-03T02:53:32.275Z,15.80
2023-01-03T02:56:05.995Z,14.63
2023-01-03T02:58:37.491Z,15.23
2023-01-03T03:01:07.959Z,15.63
2023-01-03T03:03:39.727Z,13.63
2023-01-03T03:06:14.151Z,17.17
2023-01-03T03:08:46.028Z,14.57
2023-01-03T03:11:32.215Z,14.57
2023-01-03T03:14:06.518Z,14.73
2023-01-03T03:16:51.106Z,13.63
2023-01-03T03:19:42.960Z,13.90
2023-01-03T03:22:34.694Z,13.90
2023-01-03T03:25:08.505Z,16.00
2023-01-03T03:27:56.327Z,14.33
2023-01-03T03:30:26.760Z,16.50
2023-01-03T03:32:59.641Z,16.33
2023-01-03T03:35:32.612Z,15.70
2023-01-03T03:38:03.044Z,13.13
2023-01-03T03:40:53.780Z,13.17
2023-01-03T03:43:48.236Z,15.23
2023-01-03T03:46:21.920Z,18.27
2023-01-03T03:49:16.691Z,16.77
2023-01-03T03:51:49.251Z,14.73
2023-01-03T03:54:20.435Z,13.97
2023-01-03T03:56:53.313Z,13.10
2023-01-03T03:59:23.821Z,16.63
2023-01-03T04:01:52.901Z,13.67
2023-01-03T04:04:25.676Z,15.70
2023-01-03T04:06:55.408Z,17.30
2023-01-03T04:09:23.505Z,15.93
2023-01-03T04:11:51.685Z,19.58
2023-01-03T04:14:21.425Z,20.97
2023-01-03T04:16:49.506Z,19.07
2023-01-03T04:19:17.610Z,22.30
2023-01-03T04:21:45.725Z,16.10
2023-01-03T04:24:15.117Z,19.00
2023-01-03T04:26:43.189Z,23.07
2023-01-03T04:29:11.194Z,17.13
2023-01-03T04:31:39.274Z,20.47
2023-01-03T04:34:07.442Z,20.57
2023-01-03T04:36:35.546Z,24.17
2023-01-03T04:39:03.568Z,18.50
2023-01-03T04:41:33.001Z,18.13
2023-01-03T04:44:02.763Z,24.97
2023-01-03T04:46:32.841Z,20.60
2023-01-03T04:49:01.066Z,19.27
2023-01-03T04:51:29.671Z,19.70
2023-01-03T04:53:57.752Z,21.83
2023-01-03T04:56:26.625Z,23.07
2023-01-03T04:58:56.133Z,24.13
2023-01-03T05:01:24.338Z,23.03
2023-01-03T05:03:52.672Z,25.97
2023-01-03T05:06:20.802Z,31.77
2023-01-03T05:08:50.136Z,27.87
2023-01-03T05:11:18.260Z,29.53
2023-01-03T05:13:46.359Z,28.10
2023-01-03T05:16:16.762Z,26.33
2023-01-03T05:18:47.090Z,26.60
2023-01-03T05:21:34.790Z,25.33
2023-01-03T05:24:20.368Z,26.87
2023-01-03T05:26:49.011Z,24.23
2023-01-03T05:29:21.048Z,29.03
2023-01-03T05:31:50.973Z,25.13
2023-01-03T05:34:19.095Z,27.47
2023-01-03T05:36:47.258Z,27.90
2023-01-03T05:39:15.335Z,27.87
2023-01-03T05:42:01.405Z,24.97
2023-01-03T05:44:30.533Z,32.10
2023-01-03T05:47:00.280Z,24.73
2023-01-03T05:49:28.701Z,28.83
2023-01-03T05:51:56.761Z,32.27
2023-01-03T05:54:24.819Z,29.53
2023-01-03T05:56:52.944Z,31.23
2023-01-03T05:59:21.220Z,29.47
2023-01-03T06:01:49.563Z,30.57
2023-01-03T06:04:19.266Z,30.60
2023-01-03T06:06:48.930Z,30.37
2023-01-03T06:09:17.142Z,29.20
2023-01-03T06:11:45.208Z,31.37
2023-01-03T06:14:13.311Z,29.03
2023-01-03T06:16:58.855Z,27.10
2023-01-03T06:19:28.355Z,27.27
2023-01-03T06:21:56.355Z,35.83
2023-01-03T06:24:24.399Z,24.43
2023-01-03T06:26:52.500Z,27.80
2023-01-03T06:29:20.523Z,29.20
2023-01-03T06:31:48.576Z,29.30
2023-01-03T06:34:16.691Z,29.63
2023-01-03T06:36:46.134Z,30.90
2023-01-03T06:39:14.318Z,32.83
2023-01-03T06:41:42.328Z,28.90
2023-01-03T06:44:11.356Z,28.97
2023-01-03T06:46:56.760Z,25.27
2023-01-03T06:49:41.993Z,31.13
2023-01-03T06:52:32.872Z,27.20
2023-01-03T06:55:00.925Z,27.23
2023-01-03T06:57:29.020Z,26.80
2023-01-03T06:59:57.117Z,30.17
2023-01-03T07:02:26.258Z,29.87
2023-01-03T07:04:54.505Z,28.47
2023-01-03T07:07:23.988Z,27.20
2023-01-03T07:09:52.099Z,25.10
2023-01-03T07:12:37.980Z,29.50
2023-01-03T07:15:06.830Z,25.13
2023-01-03T07:17:34.824Z,33.43
2023-01-03T07:20:02.971Z,28.33
2023-01-03T07:22:32.381Z,32.20
2023-01-03T07:25:00.425Z,34.20
2023-01-03T07:27:28.543Z,34.80
2023-01-03T07:29:56.606Z,33.77
2023-01-03T07:32:24.684Z,31.10
2023-01-03T07:34:52.697Z,31.07
2023-01-03T07:37:20.837Z,36.40
2023-01-03T07:39:50.224Z,34.37
2023-01-03T07:42:35.481Z,37.87
2023-01-03T07:45:03.627Z,38.07
2023-01-03T07:47:31.653Z,40.83
2023-01-03T07:49:59.674Z,39.97
2023-01-03T07:52:28.786Z,45.73
2023-01-03T07:54:58.235Z,40.50
2023-01-03T07:57:26.281Z,37.37
2023-01-03T07:59:54.285Z,38.93
2023-01-03T08:02:22.562Z,41.80
2023-01-03T08:04:50.791Z,42.83
2023-01-03T08:07:18.939Z,40.67
2023-01-03T08:10:04.204Z,43.10
2023-01-03T08:12:51.383Z,37.67
2023-01-03T08:15:19.384Z,45.17
2023-01-03T08:17:47.482Z,43.03
2023-01-03T08:20:15.651Z,38.17
2023-01-03T08:22:43.663Z,38.77
2023-01-03T08:25:11.843Z,39.00
2023-01-03T08:27:46.658Z,41.10
2023-01-03T08:30:18.044Z,40.57
2023-01-03T08:32:46.228Z,40.67
2023-01-03T08:35:16.092Z,44.90
2023-01-03T08:37:44.925Z,37.70
2023-01-03T08:40:16.163Z,41.27
2023-01-03T08:42:46.608Z,48.87
2023-01-03T08:45:17.671Z,42.27
2023-01-03T08:47:46.791Z,49.50
2023-01-03T08:50:15.781Z,42.83
2023-01-03T08:52:43.871Z,38.93
2023-01-03T08:55:12.150Z,43.33
2023-01-03T08:57:40.422Z,47.60
2023-01-03T09:00:11.598Z,40.93
2023-01-03T09:02:39.758Z,47.47
2023-01-03T09:05:09.287Z,42.30
2023-01-03T09:07:37.328Z,44.97
2023-01-03T09:10:06.078Z,43.07
2023-01-03T09:12:34.096Z,41.40
2023-01-03T09:15:02.234Z,40.43
2023-01-03T09:17:31.828Z,43.20
2023-01-03T09:19:59.897Z,41.27
2023-01-03T09:22:27.913Z,37.20
2023-01-03T09:24:56.361Z,41.10
2023-01-03T09:27:24.400Z,41.17
2023-01-03T09:29:53.237Z,41.60
2023-01-03T09:32:21.436Z,37.30
2023-01-03T09:34:50.852Z,41.33
2023-01-03T09:37:18.877Z,40.43
2023-01-03T09:39:46.940Z,34.77
2023-01-03T09:42:36.946Z,32.70
2023-01-03T09:45:06.445Z,34.63
2023-01-03T09:47:37.951Z,34.77
2023-01-03T09:50:29.374Z,29.27
2023-01-03T09:53:17.064Z,28.07
2023-01-03T09:56:10.430Z,31.50
2023-01-03T09:58:57.056Z,56.97
2023-01-03T10:01:55.701Z,33.67
2023-01-03T10:04:46.820Z,29.43
2023-01-03T10:07:29.979Z,39.10
2023-01-03T10:10:12.310Z,52.97
2023-01-03T10:12:55.085Z,42.47
2023-01-03T10:15:31.250Z,46.10
2023-01-03T10:18:08.429Z,40.67
2023-01-03T10:20:44.234Z,33.57
2023-01-03T10:23:14.215Z,35.00
2023-01-03T10:25:45.333Z,57.27
2023-01-03T10:28:18.418Z,43.87
2023-01-03T10:31:07.418Z,53.07
2023-01-03T10:33:41.262Z,43.57
2023-01-03T10:36:10.087Z,50.63
2023-01-03T10:38:47.847Z,46.17
2023-01-03T10:41:24.451Z,46.27
2023-01-03T10:43:59.316Z,62.03
2023-01-03T10:46:28.301Z,53.23
2023-01-03T10:49:26.727Z,58.20
2023-01-03T10:51:55.439Z,55.67
2023-01-03T10:54:31.022Z,58.33
2023-01-03T10:56:59.781Z,55.13
2023-01-03T10:59:30.033Z,57.93
2023-01-03T11:02:01.040Z,63.43
2023-01-03T11:04:30.831Z,65.13
2023-01-03T11:07:05.134Z,63.07
2023-01-03T11:09:50.966Z,58.37
2023-01-03T11:12:28.355Z,61.40
2023-01-03T11:14:58.559Z,57.57
2023-01-03T11:17:27.610Z,63.00
2023-01-03T11:19:57.479Z,53.60
2023-01-03T11:22:38.096Z,55.70
2023-01-03T11:25:21.300Z,58.40
2023-01-03T11:28:24.991Z,59.73
2023-01-03T11:31:00.392Z,57.30
2023-01-03T11:33:47.287Z,57.00
2023-01-03T11:36:29.424Z,56.10
2023-01-03T11:39:15.338Z,62.37
2023-01-03T11:42:01.603Z,61.00
2023-01-03T11:44:53.462Z,60.80
2023-01-03T11:47:29.019Z,59.83
2023-01-03T11:50:12.963Z,59.40
2023-01-03T11:52:48.412Z,60.13
2023-01-03T11:55:39.351Z,62.20
2023-01-03T11:58:50.463Z,59.13
2023-01-03T12:01:33.961Z,57.30
2023-01-03T12:04:23.878Z,59.10
2023-01-03T12:07:45.611Z,56.50
2023-01-03T12:10:00.208Z,59.97
2023-01-03T12:12:58.318Z,66.60
2023-01-03T12:15:36.976Z,58.90
2023-01-03T12:18:15.128Z,59.42
2023-01-03T12:20:49.552Z,54.10
2023-01-03T12:23:27.721Z,55.80
2023-01-03T12:25:59.689Z,51.72
2023-01-03T12:28:30.895Z,50.65
2023-01-03T12:31:04.412Z,48.72
2023-01-03T12:33:38.933Z,53.22
2023-01-03T12:36:22.057Z,51.22
2023-01-03T12:38:57.137Z,46.47
2023-01-03T12:41:32.809Z,49.60
2023-01-03T12:44:04.704Z,48.45
2023-01-03T12:46:38.961Z,48.28
2023-01-03T12:49:13.598Z,50.35
2023-01-03T12:51:41.706Z,44.67
2023-01-03T12:54:26.929Z,50.67
2023-01-03T12:57:26.725Z,48.60
2023-01-03T13:00:17.422Z,49.67
2023-01-03T13:02:52.906Z,49.28
2023-01-03T13:05:26.886Z,48.28
2023-01-03T13:08:05.693Z,48.10
2023-01-03T13:10:37.017Z,49.00
2023-01-03T13:13:06.269Z,47.60
2023-01-03T13:15:37.489Z,44.92
2023-01-03T13:18:33.780Z,46.20
2023-01-03T13:21:01.878Z,44.88
2023-01-03T13:23:36.667Z,47.83
2023-01-03T13:26:25.804Z,43.97
2023-01-03T13:29:14.752Z,46.53
2023-01-03T13:31:42.988Z,50.35
2023-01-03T13:34:34.775Z,46.75
2023-01-03T13:37:18.532Z,45.42
2023-01-03T13:40:01.581Z,43.58
2023-01-03T13:42:31.723Z,47.33
2023-01-03T13:45:37.177Z,41.22
2023-01-03T13:48:18.376Z,40.60
2023-01-03T13:51:26.035Z,36.45
2023-01-03T13:53:58.649Z,35.65
2023-01-03T13:56:29.320Z,34.08
2023-01-03T13:59:03.549Z,36.65
2023-01-03T14:01:48.858Z,35.88
2023-01-03T14:04:38.503Z,36.05
2023-01-03T14:07:25.503Z,32.50
2023-01-03T14:10:18.686Z,35.88
2023-01-03T14:13:17.397Z,27.85
2023-01-03T14:15:47.383Z,27.98
2023-01-03T14:18:22.339Z,30.38
2023-01-03T14:20:52.957Z,28.05
2023-01-03T14:23:59.133Z,27.98
2023-01-03T14:26:16.141Z,29.50
2023-01-03T14:28:49.640Z,29.92
2023-01-03T14:31:20.951Z,27.20
2023-01-03T14:33:54.721Z,28.85
2023-01-03T14:36:23.133Z,31.95
2023-01-03T14:38:54.464Z,29.98
2023-01-03T14:41:29.384Z,33.83
2023-01-03T14:44:02.443Z,31.60
2023-01-03T14:46:31.406Z,27.75
2023-01-03T14:49:03.863Z,31.98
2023-01-03T14:51:34.422Z,30.83
2023-01-03T14:54:05.272Z,32.55
2023-01-03T14:56:33.891Z,29.30
2023-01-03T14:59:02.653Z,28.40
2023-01-03T15:01:30.977Z,29.30
2023-01-03T15:04:01.606Z,38.75
2023-01-03T15:06:31.904Z,30.80
2023-01-03T15:09:01.827Z,29.77
2023-01-03T15:11:35.191Z,30.70
2023-01-03T15:14:06.098Z,30.83
2023-01-03T15:16:37.388Z,29.50
2023-01-03T15:19:13.503Z,31.48
2023-01-03T15:21:42.551Z,34.30
2023-01-03T15:24:16.755Z,31.73
2023-01-03T15:26:47.813Z,31.30
2023-01-03T15:29:17.790Z,27.55
2023-01-03T15:31:52.772Z,25.05
2023-01-03T15:34:22.367Z,27.30
2023-01-03T15:36:53.328Z,27.90
2023-01-03T15:39:24.034Z,28.00
2023-01-03T15:45:03.518Z,27.77
2023-01-03T15:47:32.470Z,27.67
2023-01-03T15:50:03.714Z,26.13
2023-01-03T15:52:31.806Z,24.85
2023-01-03T15:54:59.934Z,22.98
2023-01-03T15:57:31.357Z,28.90
2023-01-03T16:00:01.811Z,30.08
2023-01-03T16:02:33.317Z,26.95
2023-01-03T16:05:01.480Z,27.50
2023-01-03T16:07:29.555Z,23.35
2023-01-03T16:09:57.651Z,24.75
2023-01-03T16:12:34.088Z,22.90
2023-01-03T16:15:04.266Z,26.98
2023-01-03T16:17:33.377Z,24.92
2023-01-03T16:20:02.661Z,24.05
2023-01-03T16:22:35.784Z,25.30
2023-01-03T16:25:05.715Z,38.90
2023-01-03T16:27:35.462Z,35.55
2023-01-03T16:30:03.553Z,39.58
2023-01-03T16:32:31.959Z,24.25
2023-01-03T16:35:01.756Z,32.33
2023-01-03T16:37:30.115Z,25.88
2023-01-03T16:39:59.212Z,25.40
2023-01-03T16:42:28.599Z,31.50
2023-01-03T16:44:58.550Z,24.08
2023-01-03T16:47:31.659Z,22.38
2023-01-03T16:50:01.943Z,36.03
2023-01-03T16:52:34.474Z,22.50
2023-01-03T16:55:05.260Z,23.20
2023-01-03T16:57:33.371Z,27.08
2023-01-03T17:00:02.974Z,21.70
2023-01-03T17:02:31.062Z,21.70
2023-01-03T17:04:59.255Z,23.95
2023-01-03T17:07:27.264Z,21.05
2023-01-03T17:09:55.366Z,21.20
2023-01-03T17:12:25.026Z,20.27
2023-01-03T17:14:53.797Z,20.00
2023-01-03T17:17:24.417Z,19.27
2023-01-03T17:20:07.762Z,20.67
2023-01-03T17:22:36.075Z,20.63
2023-01-03T17:25:04.380Z,22.23
2023-01-03T17:27:33.696Z,17.00
2023-01-03T17:30:04.752Z,18.70
2023-01-03T17:32:34.910Z,18.38
2023-01-03T17:35:05.112Z,17.42
2023-01-03T17:37:51.428Z,18.25
2023-01-03T17:40:31.075Z,20.75
2023-01-03T17:43:01.777Z,16.30
2023-01-03T17:45:47.669Z,20.45
2023-01-03T17:48:34.571Z,19.40
2023-01-03T17:51:03.313Z,19.13
2023-01-03T17:53:31.522Z,21.75
2023-01-03T17:55:59.630Z,19.70
2023-01-03T17:58:32.482Z,19.83
2023-01-03T18:01:00.629Z,20.05
2023-01-03T18:03:31.026Z,21.48
2023-01-03T18:06:00.038Z,21.27
2023-01-03T18:08:28.080Z,25.05
2023-01-03T18:10:56.964Z,22.27
2023-01-03T18:13:27.185Z,22.25
2023-01-03T18:15:56.229Z,25.13
2023-01-03T18:18:26.387Z,19.77
2023-01-03T18:20:56.555Z,19.25
2023-01-03T18:23:28.205Z,26.40
2023-01-03T18:25:58.030Z,21.48
2023-01-03T18:28:27.946Z,21.70
2023-01-03T18:30:58.731Z,21.63
2023-01-03T18:33:27.199Z,23.95
2023-01-03T18:35:56.881Z,27.85
2023-01-03T18:38:28.791Z,20.85
2023-01-03T18:41:04.484Z,21.75
2023-01-03T18:43:33.815Z,27.90
2023-01-03T18:46:02.146Z,25.08
2023-01-03T18:48:30.359Z,26.60
2023-01-03T18:51:00.228Z,23.23
2023-01-03T18:53:32.155Z,27.10
2023-01-03T18:56:00.298Z,26.05
2023-01-03T18:58:33.131Z,24.60
2023-01-03T19:01:01.585Z,20.90
2023-01-03T19:03:31.862Z,24.05
2023-01-03T19:06:03.138Z,22.20
2023-01-03T19:08:34.018Z,21.77
2023-01-03T19:11:06.417Z,23.92
2023-01-03T19:13:50.527Z,23.42
2023-01-03T19:16:20.846Z,27.55
2023-01-03T19:18:50.852Z,23.35
2023-01-03T19:21:22.647Z,21.15
2023-01-03T19:23:58.245Z,20.00
2023-01-03T19:26:30.358Z,21.25
2023-01-03T19:29:01.981Z,20.70
2023-01-03T19:31:39.125Z,17.98
2023-01-03T19:34:15.554Z,16.00
2023-01-03T19:36:45.335Z,20.10
2023-01-03T19:39:13.850Z,19.05
2023-01-03T19:41:59.723Z,17.48
2023-01-03T19:44:28.277Z,21.13
2023-01-03T19:46:56.427Z,26.65
2023-01-03T19:49:24.692Z,19.42
2023-01-03T19:51:54.300Z,17.42
2023-01-03T19:54:22.408Z,17.42
2023-01-03T19:56:52.282Z,15.63
2023-01-03T19:59:26.886Z,18.25
2023-01-03T20:02:24.238Z,19.23
2023-01-03T20:04:45.067Z,20.95
2023-01-03T20:07:15.376Z,16.25
2023-01-03T20:09:43.470Z,17.52
2023-01-03T20:12:14.697Z,14.25
2023-01-03T20:14:45.123Z,14.63
2023-01-03T20:17:20.829Z,16.20
2023-01-03T20:19:49.186Z,15.57
2023-01-03T20:23:01.959Z,14.27
2023-01-03T20:25:18.232Z,16.52
2023-01-03T20:27:47.903Z,18.13
2023-01-03T20:30:17.472Z,15.35
2023-01-03T20:32:45.593Z,14.98
2023-01-03T20:35:56.409Z,12.73
2023-01-03T20:38:04.875Z,13.45
2023-01-03T20:40:32.995Z,14.52
2023-01-03T20:43:02.315Z,12.88
2023-01-03T20:45:31.954Z,14.38
2023-01-03T20:48:00.736Z,15.57
2023-01-03T20:50:30.064Z,17.95
2023-01-03T20:52:58.450Z,15.48
2023-01-03T20:55:28.186Z,15.05
2023-01-03T20:57:56.256Z,17.98
2023-01-03T21:00:28.040Z,13.98
2023-01-03T21:02:56.203Z,15.20
2023-01-03T21:05:24.923Z,13.05
2023-01-03T21:08:10.596Z,18.50
2023-01-03T21:10:42.013Z,15.90
2023-01-03T21:13:10.999Z,13.45
2023-01-03T21:15:39.435Z,15.70
2023-01-03T21:18:07.722Z,12.30
2023-01-03T21:20:35.848Z,11.63
2023-01-03T21:23:04.014Z,16.13
2023-01-03T21:25:33.756Z,12.52
2023-01-03T21:28:04.199Z,13.10
2023-01-03T21:30:33.606Z,11.52
2023-01-03T21:33:01.680Z,15.07
2023-01-03T21:35:29.772Z,11.90
2023-01-03T21:37:57.879Z,10.77
2023-01-03T21:40:27.823Z,10.30
2023-01-03T21:43:04.480Z,12.38
2023-01-03T21:45:36.496Z,14.52
2023-01-03T21:48:06.792Z,12.68
2023-01-03T21:50:36.229Z,15.65
2023-01-03T21:53:04.287Z,10.15
2023-01-03T21:55:32.543Z,10.07
2023-01-03T21:58:01.968Z,11.90
2023-01-03T22:00:30.110Z,11.65
2023-01-03T22:03:17.333Z,17.08
2023-01-03T22:05:45.459Z,12.52
2023-01-03T22:08:13.521Z,16.15
2023-01-03T22:10:42.262Z,13.00
2023-01-03T22:13:11.370Z,15.65
2023-01-03T22:15:40.332Z,19.30
2023-01-03T22:18:13.122Z,13.73
2023-01-03T22:20:41.227Z,14.82
2023-01-03T22:23:09.935Z,17.85
2023-01-03T22:25:37.925Z,10.93
2023-01-03T22:28:06.062Z,14.95
2023-01-03T22:30:34.115Z,21.13
2023-01-03T22:33:02.143Z,7.03
2023-01-03T22:35:31.614Z,13.75
2023-01-03T22:37:59.655Z,14.40
2023-01-03T22:40:27.733Z,13.35
2023-01-03T22:42:56.012Z,13.95
2023-01-03T22:45:24.105Z,11.20
2023-01-03T22:47:52.100Z,17.08
2023-01-03T22:50:20.296Z,12.48
2023-01-03T22:52:49.680Z,12.45
2023-01-03T22:55:17.819Z,17.45
2023-01-03T22:57:46.817Z,13.38
2023-01-03T23:00:15.579Z,13.98
2023-01-03T23:02:43.790Z,16.25
2023-01-03T23:05:11.954Z,10.52
2023-01-03T23:07:44.984Z,14.15
2023-01-03T23:10:14.715Z,13.32
2023-01-03T23:12:59.630Z,13.85
2023-01-03T23:15:29.920Z,14.10
2023-01-03T23:17:58.470Z,12.57
2023-01-03T23:20:28.933Z,14.38
2023-01-03T23:22:59.904Z,12.75
2023-01-03T23:25:30.170Z,9.65
2023-01-03T23:27:59.321Z,12.02
2023-01-03T23:30:27.477Z,13.77
2023-01-03T23:32:55.543Z,10.35
2023-01-03T23:35:23.559Z,9.55
2023-01-03T23:37:51.580Z,13.25
2023-01-03T23:40:19.769Z,13.10
2023-01-03T23:42:49.236Z,14.75
2023-01-03T23:45:17.442Z,14.20
2023-01-03T23:47:45.492Z,14.48
2023-01-03T23:50:13.514Z,9.98
2023-01-03T23:52:41.540Z,12.70
2023-01-03T23:55:12.904Z,10.75
2023-01-03T23:57:41.242Z,9.70
